NOAA Web Site Link Tides and Currents Home Page Transparent placeholder image

PORTS® Data Listing: 8548989 Newbold, PA

CO-OPS RAW PORTS DATA

************************      PRELIMINARY DATA      ************************** 

     THIS RAW DATA HAS NOT BEEN SUBJECT TO THE NATIONAL OCEAN SERVICE'S        
     QUALITY CONTROL OR QUALITY ASSURANCE PROCEDURES AND DOES NOT MEET         
     THE CRITERIA AND STANDARDS OF OFFICIAL NATIONAL OCEAN SERVICE             
     DATA.  IT IS RELEASED FOR LIMITED PUBLIC USE AS PRELIMINARY DATA TO       
     BE USED ONLY WITH APPROPRIATE CAUTION.                                    

************************      PRELIMINARY DATA      ************************** 


       CD   -   Calendar date
       T    -   Time
       TZ   -   Timezone
       PW   -   Predicted water level (feet above MLLW)
       OW   -   Observed water level (feet above MLLW)
       WS   -   Wind speed (knots)
       WD   -   Wind direction (degrees true)
       WG   -   Wind gust (knots)
       AT   -   Air temperature (degrees farenheit)
       WT   -   Water temperature (degrees farenheit)
       AP   -   Air pressure (millibars)
       SA   -   Salinty (PSU - Practical Salinity Units)
       SG   -   Specific gravity
       RH   -   Relative humidity
       AG   -   Air gap (feet)
       VI   -   Visibility (nautical miles)

       ** NOTE **
       A variable that has its data fields filled with "9"s, indicates that
       data was not collected for that sample period.
       **********


STATION NAME: Newbold (8548989)
****************************************************************************************************
    CD       T    TZ    PW     OW    WS   WD   WG    AT    WT    AP    SA    SG     RH    AG   VI
****************************************************************************************************
2018/06/23 12:48 EDT    7.99   8.25    3   79    5  66.2  77.4 1011.3 -9.9 -9.999 -99.9 -99.99 -9.99
2018/06/23 12:54 EDT    7.89   8.15    4   94    4  66.2  77.5 1011.3 -9.9 -9.999 -99.9 -99.99 -9.99
2018/06/23 13:00 EDT    7.78   8.03    3   31    6  66.2  77.5 1011.1 -9.9 -9.999 -99.9 -99.99 -9.99
2018/06/23 13:06 EDT    7.66   7.89    4   35    5  66.0  77.5 1011.2 -9.9 -9.999 -99.9 -99.99 -9.99
2018/06/23 13:12 EDT    7.54   7.76    3   93    4  65.8  77.7 1011.3 -9.9 -9.999 -99.9 -99.99 -9.99
2018/06/23 13:18 EDT    7.41   7.60    4   72    7  65.7  77.7 1011.1 -9.9 -9.999 -99.9 -99.99 -9.99
2018/06/23 13:24 EDT    7.28   7.45    4   75    7  65.8  77.7 1010.9 -9.9 -9.999 -99.9 -99.99 -9.99
2018/06/23 13:30 EDT    7.14   7.29    6   89    8  65.8  77.7 1010.8 -9.9 -9.999 -99.9 -99.99 -9.99
2018/06/23 13:36 EDT    7.00   7.13    4   77    8  65.7  77.7 1011.2 -9.9 -9.999 -99.9 -99.99 -9.99
2018/06/23 13:42 EDT    6.86   6.96    2   64    5  65.7  77.7 1011.3 -9.9 -9.999 -99.9 -99.99 -9.99
2018/06/23 13:48 EDT    6.72   6.79    4   65    5  65.8  77.7 1011.0 -9.9 -9.999 -99.9 -99.99 -9.99
2018/06/23 13:54 EDT    6.57   6.61    4   48    5  66.0  77.7 1010.8 -9.9 -9.999 -99.9 -99.99 -9.99
2018/06/23 14:00 EDT    6.43   6.44    4   52    6  66.2  77.7 1010.8 -9.9 -9.999 -99.9 -99.99 -9.99
2018/06/23 14:06 EDT    6.28   6.26    4  100    7  66.2  77.7 1010.7 -9.9 -9.999 -99.9 -99.99 -9.99
2018/06/23 14:12 EDT    6.13   6.09    5   76    7  66.2  77.7 1010.7 -9.9 -9.999 -99.9 -99.99 -9.99
2018/06/23 14:18 EDT    5.99   5.92    4   93    6  66.4  77.7 1010.8 -9.9 -9.999 -99.9 -99.99 -9.99
2018/06/23 14:24 EDT    5.84   5.75    4   65    6  66.4  77.7 1010.6 -9.9 -9.999 -99.9 -99.99 -9.99
2018/06/23 14:30 EDT    5.69   5.59    3   91    6  66.4  77.7 1010.7 -9.9 -9.999 -99.9 -99.99 -9.99
2018/06/23 14:36 EDT    5.55   5.44    3  119    6  66.4  77.7 1010.7 -9.9 -9.999 -99.9 -99.99 -9.99
2018/06/23 14:42 EDT    5.40   5.28    2  119    4  66.7  77.7 1010.6 -9.9 -9.999 -99.9 -99.99 -9.99
2018/06/23 14:48 EDT    5.25   5.13    4   73    6  66.4  77.7 1010.5 -9.9 -9.999 -99.9 -99.99 -9.99
2018/06/23 14:54 EDT    5.11   4.98    3   73    5  66.6  77.7 1010.4 -9.9 -9.999 -99.9 -99.99 -9.99
2018/06/23 15:00 EDT    4.96   4.84    4   72    6  66.9  77.7 1010.2 -9.9 -9.999 -99.9 -99.99 -9.99
2018/06/23 15:06 EDT    4.82   4.71    3   84    6  67.3  77.7 1010.3 -9.9 -9.999 -99.9 -99.99 -9.99
2018/06/23 15:12 EDT    4.67   4.57    3  110    5  67.3  77.5 1010.3 -9.9 -9.999 -99.9 -99.99 -9.99
2018/06/23 15:18 EDT    4.53   4.43    2  130    4  67.8  77.5 1010.3 -9.9 -9.999 -99.9 -99.99 -9.99
2018/06/23 15:24 EDT    4.39   4.30    3   90    4  68.0  77.5 1010.3 -9.9 -9.999 -99.9 -99.99 -9.99
2018/06/23 15:30 EDT    4.25   4.17    3  111    6  68.0  77.5 1010.2 -9.9 -9.999 -99.9 -99.99 -9.99
2018/06/23 15:36 EDT    4.11   4.04    2  125    4  67.8  77.5 1010.3 -9.9 -9.999 -99.9 -99.99 -9.99
2018/06/23 15:42 EDT    3.97   3.91    2  108    4  68.4  77.5 1010.2 -9.9 -9.999 -99.9 -99.99 -9.99
2018/06/23 15:48 EDT    3.83   3.80    1  111    4  68.0  77.5 1010.1 -9.9 -9.999 -99.9 -99.99 -9.99
2018/06/23 15:54 EDT    3.69   3.68    0  188    2  68.7  77.5 1010.1 -9.9 -9.999 -99.9 -99.99 -9.99
2018/06/23 16:00 EDT    3.55   3.56    4  170    5  68.7  77.5 1010.2 -9.9 -9.999 -99.9 -99.99 -9.99
2018/06/23 16:06 EDT    3.42   3.45    4  176    6  68.5  77.5 1010.1 -9.9 -9.999 -99.9 -99.99 -9.99
2018/06/23 16:12 EDT    3.28   3.33    4  169    5  68.7  77.5 1010.1 -9.9 -9.999 -99.9 -99.99 -9.99
2018/06/23 16:18 EDT    3.14   3.22    4  159    5  68.9  77.5 1010.0 -9.9 -9.999 -99.9 -99.99 -9.99
2018/06/23 16:24 EDT    3.01   3.11    2  144    4  68.7  77.5 1010.0 -9.9 -9.999 -99.9 -99.99 -9.99
2018/06/23 16:30 EDT    2.87   2.99    3  170    4  69.1  77.5 1010.0 -9.9 -9.999 -99.9 -99.99 -9.99
2018/06/23 16:36 EDT    2.73   2.88    3  170    4  69.4  77.7 1010.1 -9.9 -9.999 -99.9 -99.99 -9.99
2018/06/23 16:42 EDT    2.59   2.77    3  161    4  69.4  77.7 1010.1 -9.9 -9.999 -99.9 -99.99 -9.99
2018/06/23 16:48 EDT    2.45   2.66    1  181    3  69.6  77.7 1010.1 -9.9 -9.999 -99.9 -99.99 -9.99
2018/06/23 16:54 EDT    2.31   2.55    2  167    4  69.8  77.7 1010.0 -9.9 -9.999 -99.9 -99.99 -9.99
2018/06/23 17:00 EDT    2.16   2.44    3  156    4  70.0  77.7 1009.9 -9.9 -9.999 -99.9 -99.99 -9.99
2018/06/23 17:06 EDT    2.01   2.33    3  103    4  70.0  77.7 1009.9 -9.9 -9.999 -99.9 -99.99 -9.99
2018/06/23 17:12 EDT    1.86   2.22    2   73    3  70.0  77.7 1010.0 -9.9 -9.999 -99.9 -99.99 -9.99
2018/06/23 17:18 EDT    1.71   2.11    2   77    3  70.0  77.7 1010.2 -9.9 -9.999 -99.9 -99.99 -9.99
2018/06/23 17:24 EDT    1.56   2.01    3  155    4  70.0  77.7 1010.1 -9.9 -9.999 -99.9 -99.99 -9.99
2018/06/23 17:30 EDT    1.40   1.91    0  194    3  69.8  77.7 1010.1 -9.9 -9.999 -99.9 -99.99 -9.99
2018/06/23 17:36 EDT    1.25   1.80    0  165    1  70.3  77.7 1010.0 -9.9 -9.999 -99.9 -99.99 -9.99
2018/06/23 17:42 EDT    1.10   1.70    3  174    4  69.8  77.7 1009.9 -9.9 -9.999 -99.9 -99.99 -9.99
2018/06/23 17:48 EDT    0.94   1.60    3  114    4  69.8  77.7 1009.8 -9.9 -9.999 -99.9 -99.99 -9.99
2018/06/23 17:54 EDT    0.80   1.50    2   99    4  69.8  77.7 1009.7 -9.9 -9.999 -99.9 -99.99 -9.99
2018/06/23 18:00 EDT    0.65   1.40    2  136    3  69.8  77.7 1009.7 -9.9 -9.999 -99.9 -99.99 -9.99
2018/06/23 18:06 EDT    0.52   1.31    2  108    3  69.8  77.7 1009.7 -9.9 -9.999 -99.9 -99.99 -9.99
2018/06/23 18:12 EDT    0.39   1.22    3   85    4  69.8  77.7 1009.5 -9.9 -9.999 -99.9 -99.99 -9.99
2018/06/23 18:18 EDT    0.27   1.13    3   82    5  70.0  77.7 1009.4 -9.9 -9.999 -99.9 -99.99 -9.99
2018/06/23 18:24 EDT    0.17   1.04    3   69    4  69.6  77.7 1009.6 -9.9 -9.999 -99.9 -99.99 -9.99
2018/06/23 18:30 EDT    0.07   0.96    2   75    2  69.8  77.7 1009.5 -9.9 -9.999 -99.9 -99.99 -9.99
2018/06/23 18:36 EDT   -0.00   0.88    2   91    3  69.8  77.7 1009.6 -9.9 -9.999 -99.9 -99.99 -9.99
2018/06/23 18:42 EDT   -0.07   0.79    3   79    3  69.6  77.7 1009.6 -9.9 -9.999 -99.9 -99.99 -9.99
2018/06/23 18:48 EDT   -0.11   0.72    2   85    3  69.6  77.5 1009.7 -9.9 -9.999 -99.9 -99.99 -9.99
2018/06/23 18:54 EDT   -0.13   0.64    2   81    3  69.6  77.5 1009.7 -9.9 -9.999 -99.9 -99.99 -9.99
2018/06/23 19:00 EDT   -0.13   0.58    2   48    2  69.8  77.5 1009.8 -9.9 -9.999 -99.9 -99.99 -9.99
2018/06/23 19:06 EDT   -0.12   0.53    2   77    3  69.8  77.5 1009.9 -9.9 -9.999 -99.9 -99.99 -9.99
2018/06/23 19:12 EDT   -0.08   0.48    2   56    3  69.8  77.5 1010.0 -9.9 -9.999 -99.9 -99.99 -9.99
2018/06/23 19:18 EDT   -0.02   0.46    1   36    2  70.0  77.5 1010.0 -9.9 -9.999 -99.9 -99.99 -9.99
2018/06/23 19:24 EDT    0.07   0.45    2   30    3  69.8  77.5 1010.1 -9.9 -9.999 -99.9 -99.99 -9.99
2018/06/23 19:30 EDT    0.17   0.47    2   66    3  69.6  77.5 1009.9 -9.9 -9.999 -99.9 -99.99 -9.99
2018/06/23 19:36 EDT    0.29   0.56    2   76    3  69.8  77.4 1009.9 -9.9 -9.999 -99.9 -99.99 -9.99
2018/06/23 19:42 EDT    0.44   0.74    2   72    3  69.6  77.4 1010.0 -9.9 -9.999 -99.9 -99.99 -9.99
2018/06/23 19:48 EDT    0.60   0.99    2  125    3  69.8  77.4 1010.0 -9.9 -9.999 -99.9 -99.99 -9.99
2018/06/23 19:54 EDT    0.77   1.30    3  112    4  69.8  77.4 1009.9 -9.9 -9.999 -99.9 -99.99 -9.99
2018/06/23 20:00 EDT    0.96   1.61    2  107    3  69.8  77.4 1010.0 -9.9 -9.999 -99.9 -99.99 -9.99
2018/06/23 20:06 EDT    1.16   1.92    2  104    4  69.6  77.2 1010.0 -9.9 -9.999 -99.9 -99.99 -9.99
2018/06/23 20:12 EDT    1.38   2.22    3  113    4  69.6  77.2 1010.1 -9.9 -9.999 -99.9 -99.99 -9.99
2018/06/23 20:18 EDT    1.60   2.50    2  125    4  69.8  77.2 1010.2 -9.9 -9.999 -99.9 -99.99 -9.99
2018/06/23 20:24 EDT    1.83   2.78    2   76    3  69.6  77.0 1010.2 -9.9 -9.999 -99.9 -99.99 -9.99
2018/06/23 20:30 EDT    2.06   3.07    3   79    3  69.6  77.0 1010.2 -9.9 -9.999 -99.9 -99.99 -9.99
2018/06/23 20:36 EDT    2.30   3.37    2  100    3  69.8  77.0 1010.3 -9.9 -9.999 -99.9 -99.99 -9.99
2018/06/23 20:42 EDT    2.54   3.68    2  126    3  69.6  76.8 1010.3 -9.9 -9.999 -99.9 -99.99 -9.99
2018/06/23 20:48 EDT    2.78   3.99    3  115    4  69.6  76.8 1010.2 -9.9 -9.999 -99.9 -99.99 -9.99
2018/06/23 20:54 EDT    3.02   4.32    3  114    5  69.6  76.8 1010.3 -9.9 -9.999 -99.9 -99.99 -9.99
2018/06/23 21:00 EDT    3.25   4.61    2  105    7  69.6  76.6 1010.3 -9.9 -9.999 -99.9 -99.99 -9.99
2018/06/23 21:06 EDT    3.49   4.89    3  120    5  69.6  76.6 1010.3 -9.9 -9.999 -99.9 -99.99 -9.99
2018/06/23 21:12 EDT    3.72   5.14    3  120    5  69.3  76.6 1010.3 -9.9 -9.999 -99.9 -99.99 -9.99
2018/06/23 21:18 EDT    3.94   5.36    5  154    6  69.4  76.6 1010.3 -9.9 -9.999 -99.9 -99.99 -9.99
2018/06/23 21:24 EDT    4.16   5.57    2  116    6  69.3  76.6 1010.4 -9.9 -9.999 -99.9 -99.99 -9.99
2018/06/23 21:30 EDT    4.38   5.76    2  123    4  69.1  76.6 1010.5 -9.9 -9.999 -99.9 -99.99 -9.99
2018/06/23 21:36 EDT    4.59   5.95    1  105    3  69.4  76.6 1010.5 -9.9 -9.999 -99.9 -99.99 -9.99
2018/06/23 21:42 EDT    4.81   6.12    3  129    4  69.3  76.6 1010.5 -9.9 -9.999 -99.9 -99.99 -9.99
2018/06/23 21:48 EDT    5.01   6.30    2  133    4  69.4  76.6 1010.5 -9.9 -9.999 -99.9 -99.99 -9.99
2018/06/23 21:54 EDT    5.22   6.47    1   48    2  69.3  76.6 1010.6 -9.9 -9.999 -99.9 -99.99 -9.99
2018/06/23 22:00 EDT    5.42   6.63    1  171    2  69.4  76.6 1010.6 -9.9 -9.999 -99.9 -99.99 -9.99
2018/06/23 22:06 EDT    5.63   6.79    1   88    2  69.3  76.6 1010.6 -9.9 -9.999 -99.9 -99.99 -9.99
2018/06/23 22:12 EDT    5.83   6.95    2  119    3  69.3  76.6 1010.6 -9.9 -9.999 -99.9 -99.99 -9.99
2018/06/23 22:18 EDT    6.03   7.10    4  172    4  69.4  76.6 1010.5 -9.9 -9.999 -99.9 -99.99 -9.99
2018/06/23 22:24 EDT    6.23   7.25    5  146    7  69.3  76.6 1010.4 -9.9 -9.999 -99.9 -99.99 -9.99
2018/06/23 22:30 EDT    6.43   7.39    2  122    6  69.1  76.6 1010.3 -9.9 -9.999 -99.9 -99.99 -9.99
2018/06/23 22:36 EDT    6.63   7.53    2  138    4  69.1  76.6 1010.4 -9.9 -9.999 -99.9 -99.99 -9.99
2018/06/23 22:42 EDT    6.83   7.66    4  145    5  68.9  76.8 1010.5 -9.9 -9.999 -99.9 -99.99 -9.99
2018/06/23 22:48 EDT    7.03   7.80    4  149    6  68.9  76.8 1010.4 -9.9 -9.999 -99.9 -99.99 -9.99
2018/06/23 22:54 EDT    7.22   7.92    5  159    6  69.1  76.8 1010.3 -9.9 -9.999 -99.9 -99.99 -9.99
2018/06/23 23:00 EDT    7.42   8.05    2  103    5  68.5  76.8 1010.4 -9.9 -9.999 -99.9 -99.99 -9.99
2018/06/23 23:06 EDT    7.61   8.17    2  118    3  68.5  76.8 1010.5 -9.9 -9.999 -99.9 -99.99 -9.99
2018/06/23 23:12 EDT    7.79   8.28    3  152    4  68.5  76.8 1010.5 -9.9 -9.999 -99.9 -99.99 -9.99
2018/06/23 23:18 EDT    7.97   8.39    2  148    3  68.5  76.8 1010.5 -9.9 -9.999 -99.9 -99.99 -9.99
2018/06/23 23:24 EDT    8.14   8.49    2  121    3  68.5  76.8 1010.5 -9.9 -9.999 -99.9 -99.99 -9.99
2018/06/23 23:30 EDT    8.31   8.59    2  117    2  68.7  76.8 1010.5 -9.9 -9.999 -99.9 -99.99 -9.99
2018/06/23 23:36 EDT    8.46   8.69    1  155    2  68.7  76.8 1010.5 -9.9 -9.999 -99.9 -99.99 -9.99
2018/06/23 23:42 EDT    8.60   8.78    3  163    4  68.5  76.8 1010.5 -9.9 -9.999 -99.9 -99.99 -9.99
2018/06/23 23:48 EDT    8.73   8.87    4  162    5  68.5  76.8 1010.6 -9.9 -9.999 -99.9 -99.99 -9.99
2018/06/23 23:54 EDT    8.84   8.95    2  191    5  68.5  76.8 1010.5 -9.9 -9.999 -99.9 -99.99 -9.99
2018/06/24 00:00 EDT    8.94   9.02    4  170    5  68.4  76.8 1010.5 -9.9 -9.999 -99.9 -99.99 -9.99
2018/06/24 00:06 EDT    9.02   9.09    4  168    5  68.5  76.8 1010.6 -9.9 -9.999 -99.9 -99.99 -9.99
2018/06/24 00:12 EDT    9.09   9.14    4  169    6  68.4  76.8 1010.7 -9.9 -9.999 -99.9 -99.99 -9.99
2018/06/24 00:18 EDT    9.14   9.18    4  186    6  68.4  76.8 1010.8 -9.9 -9.999 -99.9 -99.99 -9.99
2018/06/24 00:24 EDT    9.18   9.21    4  185    5  68.4  76.8 1010.7 -9.9 -9.999 -99.9 -99.99 -9.99
2018/06/24 00:30 EDT    9.19   9.24    4  186    6  68.2  76.8 1010.7 -9.9 -9.999 -99.9 -99.99 -9.99
2018/06/24 00:36 EDT    9.20   9.25    4  202    5  68.0  76.8 1010.6 -9.9 -9.999 -99.9 -99.99 -9.99
2018/06/24 00:42 EDT    9.18   9.25    4  193    6  67.8  76.8 1010.5 -9.9 -9.999 -99.9 -99.99 -9.99
2018/06/24 00:48 EDT    9.15   9.25    4  172    6  67.6  76.8 1010.5 -9.9 -9.999 -99.9 -99.99 -9.99
2018/06/24 00:54 EDT    9.10   9.23    4  173    5  68.0  77.0 1010.5 -9.9 -9.999 -99.9 -99.99 -9.99
2018/06/24 01:00 EDT    9.05   9.19    5  161    6  67.8  77.0 1010.4 -9.9 -9.999 -99.9 -99.99 -9.99
2018/06/24 01:06 EDT    8.97   9.15    4  175    6  67.6  77.0 1010.4 -9.9 -9.999 -99.9 -99.99 -9.99
2018/06/24 01:12 EDT    8.89   9.08    5  170    6  67.8  77.0 1010.5 -9.9 -9.999 -99.9 -99.99 -9.99
2018/06/24 01:18 EDT    8.80   9.01    3  169    5  67.6  77.0 1010.4 -9.9 -9.999 -99.9 -99.99 -9.99
2018/06/24 01:24 EDT    8.69   8.91    4  165    5  67.8  77.0 1010.3 -9.9 -9.999 -99.9 -99.99 -9.99
2018/06/24 01:30 EDT    8.58   8.81    2  116    4  67.5  77.0 1010.3 -9.9 -9.999 -99.9 -99.99 -9.99
2018/06/24 01:36 EDT    8.46   8.68    3  101    5  67.1  77.0 1010.3 -9.9 -9.999 -99.9 -99.99 -9.99
2018/06/24 01:42 EDT    8.34   8.55    3   95    4  67.1  77.0 1010.1 -9.9 -9.999 -99.9 -99.99 -9.99
2018/06/24 01:48 EDT    8.21   8.41    2  114    4  67.1  77.2 1010.1 -9.9 -9.999 -99.9 -99.99 -9.99
2018/06/24 01:54 EDT    8.07   8.26    3  163    5  67.5  77.2 1010.1 -9.9 -9.999 -99.9 -99.99 -9.99
2018/06/24 02:00 EDT    7.93   8.11    4  159    6  67.3  77.2 1010.1 -9.9 -9.999 -99.9 -99.99 -9.99
2018/06/24 02:06 EDT    7.79   7.95    3  172    5  67.1  77.2 1010.1 -9.9 -9.999 -99.9 -99.99 -9.99
2018/06/24 02:12 EDT    7.65   7.79    4  153    5  67.1  77.2 1010.1 -9.9 -9.999 -99.9 -99.99 -9.99
2018/06/24 02:18 EDT    7.51   7.62    4  152    5  67.1  77.2 1010.1 -9.9 -9.999 -99.9 -99.99 -9.99
2018/06/24 02:24 EDT    7.36   7.45    2  121    5  67.3  77.2 1010.1 -9.9 -9.999 -99.9 -99.99 -9.99
2018/06/24 02:30 EDT    7.21   7.27    3  157    5  67.3  77.2 1010.1 -9.9 -9.999 -99.9 -99.99 -9.99
2018/06/24 02:36 EDT    7.07   7.10    4  148    5  67.1  77.2 1010.1 -9.9 -9.999 -99.9 -99.99 -9.99
2018/06/24 02:42 EDT    6.92   6.92    4  165    7  67.1  77.2 1010.1 -9.9 -9.999 -99.9 -99.99 -9.99
2018/06/24 02:48 EDT    6.77   6.75    6  160    7  67.1  77.2 1010.1 -9.9 -9.999 -99.9 -99.99 -9.99
2018/06/24 02:54 EDT    6.62   6.58    7  161    8  67.3  77.2 1010.1 -9.9 -9.999 -99.9 -99.99 -9.99
2018/06/24 03:00 EDT    6.48   6.41    6  164    8  66.9  77.2 1010.0 -9.9 -9.999 -99.9 -99.99 -9.99
2018/06/24 03:06 EDT    6.33   6.25    6  169    7  66.9  77.2 1010.0 -9.9 -9.999 -99.9 -99.99 -9.99
2018/06/24 03:12 EDT    6.18   6.09    5  167    6  66.9  77.2 1010.1 -9.9 -9.999 -99.9 -99.99 -9.99
2018/06/24 03:18 EDT    6.03   5.93    5  180    7  66.7  77.2 1010.1 -9.9 -9.999 -99.9 -99.99 -9.99
2018/06/24 03:24 EDT    5.88   5.77    4  182    6  66.4  77.2 1010.1 -9.9 -9.999 -99.9 -99.99 -9.99
2018/06/24 03:30 EDT    5.74   5.62    5  175    8  66.7  77.2 1010.1 -9.9 -9.999 -99.9 -99.99 -9.99
2018/06/24 03:36 EDT    5.59   5.47    4  178    7  66.6  77.2 1010.1 -9.9 -9.999 -99.9 -99.99 -9.99
2018/06/24 03:42 EDT    5.44   5.32    5  171    7  66.6  77.2 1010.1 -9.9 -9.999 -99.9 -99.99 -9.99
2018/06/24 03:48 EDT    5.30   5.17    6  188    8  66.4  77.2 1010.0 -9.9 -9.999 -99.9 -99.99 -9.99
2018/06/24 03:54 EDT    5.15   5.03    4  188    6  66.6  77.2 1010.0 -9.9 -9.999 -99.9 -99.99 -9.99
2018/06/24 04:00 EDT    5.01   4.89    3  177    7  66.4  77.2 1009.9 -9.9 -9.999 -99.9 -99.99 -9.99
2018/06/24 04:06 EDT    4.86   4.75    4  166    5  66.4  77.2 1009.9 -9.9 -9.999 -99.9 -99.99 -9.99
2018/06/24 04:12 EDT    4.72   4.61    5  162    7  66.4  77.0 1009.9 -9.9 -9.999 -99.9 -99.99 -9.99
2018/06/24 04:18 EDT    4.57   4.48    4  173    6  66.6  77.0 1009.9 -9.9 -9.999 -99.9 -99.99 -9.99
2018/06/24 04:24 EDT    4.43   4.35    4  162    6  66.2  77.0 1009.9 -9.9 -9.999 -99.9 -99.99 -9.99
2018/06/24 04:30 EDT    4.29   4.23    4  174    5  66.4  77.0 1010.1 -9.9 -9.999 -99.9 -99.99 -9.99
2018/06/24 04:36 EDT    4.14   4.09    3  245    5  66.0  77.0 1010.2 -9.9 -9.999 -99.9 -99.99 -9.99
2018/06/24 04:42 EDT    4.00   3.97    3  200    5  66.2  77.0 1010.3 -9.9 -9.999 -99.9 -99.99 -9.99
2018/06/24 04:48 EDT    3.85   3.85    3  197    4  66.0  77.0 1010.2 -9.9 -9.999 -99.9 -99.99 -9.99
2018/06/24 04:54 EDT    3.71   3.73    4  189    5  66.6  77.0 1010.2 -9.9 -9.999 -99.9 -99.99 -9.99
2018/06/24 05:00 EDT    3.56   3.60    4  196    6  66.4  77.0 1010.2 -9.9 -9.999 -99.9 -99.99 -9.99
2018/06/24 05:06 EDT    3.40   3.48    4  191    5  66.4  77.0 1010.4 -9.9 -9.999 -99.9 -99.99 -9.99
2018/06/24 05:12 EDT    3.25   3.36    4  186    5  66.6  77.0 1010.5 -9.9 -9.999 -99.9 -99.99 -9.99
2018/06/24 05:18 EDT    3.09   3.24    3  215    5  66.6  77.0 1010.5 -9.9 -9.999 -99.9 -99.99 -9.99
2018/06/24 05:24 EDT    2.93   3.13    4  191    7  66.4  77.0 1010.5 -9.9 -9.999 -99.9 -99.99 -9.99
2018/06/24 05:30 EDT    2.77   3.01    4  219    5  66.4  77.0 1010.6 -9.9 -9.999 -99.9 -99.99 -9.99
2018/06/24 05:36 EDT    2.60   2.90    3  197    5  66.6  77.0 1010.5 -9.9 -9.999 -99.9 -99.99 -9.99
2018/06/24 05:42 EDT    2.43   2.79    2  205    3  66.4  77.0 1010.6 -9.9 -9.999 -99.9 -99.99 -9.99
2018/06/24 05:48 EDT    2.26   2.68    2  216    5  66.4  77.0 1010.6 -9.9 -9.999 -99.9 -99.99 -9.99
2018/06/24 05:54 EDT    2.08   2.57    1  218    3  66.4  77.0 1010.6 -9.9 -9.999 -99.9 -99.99 -9.99
2018/06/24 06:00 EDT    1.91   2.46    1  180    2  66.9  77.0 1010.6 -9.9 -9.999 -99.9 -99.99 -9.99
2018/06/24 06:06 EDT    1.73   2.36    2  167    3  66.9  77.0 1010.6 -9.9 -9.999 -99.9 -99.99 -9.99
2018/06/24 06:12 EDT    1.56   2.25    2  173    4  66.7  77.0 1010.6 -9.9 -9.999 -99.9 -99.99 -9.99
2018/06/24 06:18 EDT    1.38   2.14    2  203    3  66.7  77.0 1010.7 -9.9 -9.999 -99.9 -99.99 -9.99
2018/06/24 06:24 EDT    1.22   2.04    3  178    4  66.9  77.0 1010.7 -9.9 -9.999 -99.9 -99.99 -9.99
2018/06/24 06:30 EDT    1.05   1.94    2  180    4  66.7  77.0 1010.9 -9.9 -9.999 -99.9 -99.99 -9.99
2018/06/24 06:36 EDT    0.89   1.84    1  197    3  66.7  77.0 1010.9 -9.9 -9.999 -99.9 -99.99 -9.99
2018/06/24 06:42 EDT    0.75   1.75    1  260    2  66.9  77.0 1010.9 -9.9 -9.999 -99.9 -99.99 -9.99
2018/06/24 06:48 EDT    0.61 -99.99 -999 -999 -999 -99.9 -99.9 -999.9 -9.9 -9.999 -99.9 -99.99 -9.99
2018/06/24 06:54 EDT    0.48 -99.99 -999 -999 -999 -99.9 -99.9 -999.9 -9.9 -9.999 -99.9 -99.99 -9.99
2018/06/24 07:00 EDT    0.37 -99.99 -999 -999 -999 -99.9 -99.9 -999.9 -9.9 -9.999 -99.9 -99.99 -9.99
2018/06/24 07:06 EDT    0.28 -99.99 -999 -999 -999 -99.9 -99.9 -999.9 -9.9 -9.999 -99.9 -99.99 -9.99
2018/06/24 07:12 EDT    0.20 -99.99 -999 -999 -999 -99.9 -99.9 -999.9 -9.9 -9.999 -99.9 -99.99 -9.99
2018/06/24 07:18 EDT    0.14 -99.99 -999 -999 -999 -99.9 -99.9 -999.9 -9.9 -9.999 -99.9 -99.99 -9.99
2018/06/24 07:24 EDT    0.10 -99.99 -999 -999 -999 -99.9 -99.9 -999.9 -9.9 -9.999 -99.9 -99.99 -9.99
2018/06/24 07:30 EDT    0.08 -99.99 -999 -999 -999 -99.9 -99.9 -999.9 -9.9 -9.999 -99.9 -99.99 -9.99
2018/06/24 07:36 EDT    0.08 -99.99 -999 -999 -999 -99.9 -99.9 -999.9 -9.9 -9.999 -99.9 -99.99 -9.99
2018/06/24 07:42 EDT    0.10 -99.99 -999 -999 -999 -99.9 -99.9 -999.9 -9.9 -9.999 -99.9 -99.99 -9.99
2018/06/24 07:48 EDT    0.14 -99.99 -999 -999 -999 -99.9 -99.9 -999.9 -9.9 -9.999 -99.9 -99.99 -9.99
2018/06/24 07:54 EDT    0.21 -99.99 -999 -999 -999 -99.9 -99.9 -999.9 -9.9 -9.999 -99.9 -99.99 -9.99
2018/06/24 08:00 EDT    0.29 -99.99 -999 -999 -999 -99.9 -99.9 -999.9 -9.9 -9.999 -99.9 -99.99 -9.99
2018/06/24 08:06 EDT    0.40 -99.99 -999 -999 -999 -99.9 -99.9 -999.9 -9.9 -9.999 -99.9 -99.99 -9.99
2018/06/24 08:12 EDT    0.52 -99.99 -999 -999 -999 -99.9 -99.9 -999.9 -9.9 -9.999 -99.9 -99.99 -9.99
2018/06/24 08:18 EDT    0.66 -99.99 -999 -999 -999 -99.9 -99.9 -999.9 -9.9 -9.999 -99.9 -99.99 -9.99
2018/06/24 08:24 EDT    0.81 -99.99 -999 -999 -999 -99.9 -99.9 -999.9 -9.9 -9.999 -99.9 -99.99 -9.99
2018/06/24 08:30 EDT    0.98 -99.99 -999 -999 -999 -99.9 -99.9 -999.9 -9.9 -9.999 -99.9 -99.99 -9.99
2018/06/24 08:36 EDT    1.16 -99.99 -999 -999 -999 -99.9 -99.9 -999.9 -9.9 -9.999 -99.9 -99.99 -9.99
2018/06/24 08:42 EDT    1.34 -99.99 -999 -999 -999 -99.9 -99.9 -999.9 -9.9 -9.999 -99.9 -99.99 -9.99
2018/06/24 08:48 EDT    1.54 -99.99 -999 -999 -999 -99.9 -99.9 -999.9 -9.9 -9.999 -99.9 -99.99 -9.99
2018/06/24 08:54 EDT    1.74 -99.99 -999 -999 -999 -99.9 -99.9 -999.9 -9.9 -9.999 -99.9 -99.99 -9.99
2018/06/24 09:00 EDT    1.95 -99.99 -999 -999 -999 -99.9 -99.9 -999.9 -9.9 -9.999 -99.9 -99.99 -9.99
2018/06/24 09:06 EDT    2.16 -99.99 -999 -999 -999 -99.9 -99.9 -999.9 -9.9 -9.999 -99.9 -99.99 -9.99
2018/06/24 09:12 EDT    2.37 -99.99 -999 -999 -999 -99.9 -99.9 -999.9 -9.9 -9.999 -99.9 -99.99 -9.99
2018/06/24 09:18 EDT    2.58 -99.99 -999 -999 -999 -99.9 -99.9 -999.9 -9.9 -9.999 -99.9 -99.99 -9.99
2018/06/24 09:24 EDT    2.79 -99.99 -999 -999 -999 -99.9 -99.9 -999.9 -9.9 -9.999 -99.9 -99.99 -9.99
2018/06/24 09:30 EDT    3.00 -99.99 -999 -999 -999 -99.9 -99.9 -999.9 -9.9 -9.999 -99.9 -99.99 -9.99
2018/06/24 09:36 EDT    3.20 -99.99 -999 -999 -999 -99.9 -99.9 -999.9 -9.9 -9.999 -99.9 -99.99 -9.99
2018/06/24 09:42 EDT    3.41 -99.99 -999 -999 -999 -99.9 -99.9 -999.9 -9.9 -9.999 -99.9 -99.99 -9.99
2018/06/24 09:48 EDT    3.61 -99.99 -999 -999 -999 -99.9 -99.9 -999.9 -9.9 -9.999 -99.9 -99.99 -9.99
2018/06/24 09:54 EDT    3.80 -99.99 -999 -999 -999 -99.9 -99.9 -999.9 -9.9 -9.999 -99.9 -99.99 -9.99
2018/06/24 10:00 EDT    4.00 -99.99 -999 -999 -999 -99.9 -99.9 -999.9 -9.9 -9.999 -99.9 -99.99 -9.99
2018/06/24 10:06 EDT    4.19 -99.99 -999 -999 -999 -99.9 -99.9 -999.9 -9.9 -9.999 -99.9 -99.99 -9.99
2018/06/24 10:12 EDT    4.38 -99.99 -999 -999 -999 -99.9 -99.9 -999.9 -9.9 -9.999 -99.9 -99.99 -9.99
2018/06/24 10:18 EDT    4.57 -99.99 -999 -999 -999 -99.9 -99.9 -999.9 -9.9 -9.999 -99.9 -99.99 -9.99
2018/06/24 10:24 EDT    4.76 -99.99 -999 -999 -999 -99.9 -99.9 -999.9 -9.9 -9.999 -99.9 -99.99 -9.99
2018/06/24 10:30 EDT    4.95 -99.99 -999 -999 -999 -99.9 -99.9 -999.9 -9.9 -9.999 -99.9 -99.99 -9.99
2018/06/24 10:36 EDT    5.14 -99.99 -999 -999 -999 -99.9 -99.9 -999.9 -9.9 -9.999 -99.9 -99.99 -9.99
2018/06/24 10:42 EDT    5.33 -99.99 -999 -999 -999 -99.9 -99.9 -999.9 -9.9 -9.999 -99.9 -99.99 -9.99
2018/06/24 10:48 EDT    5.52 -99.99 -999 -999 -999 -99.9 -99.9 -999.9 -9.9 -9.999 -99.9 -99.99 -9.99
2018/06/24 10:54 EDT    5.71 -99.99 -999 -999 -999 -99.9 -99.9 -999.9 -9.9 -9.999 -99.9 -99.99 -9.99
2018/06/24 11:00 EDT    5.90 -99.99 -999 -999 -999 -99.9 -99.9 -999.9 -9.9 -9.999 -99.9 -99.99 -9.99
2018/06/24 11:06 EDT    6.09 -99.99 -999 -999 -999 -99.9 -99.9 -999.9 -9.9 -9.999 -99.9 -99.99 -9.99
2018/06/24 11:12 EDT    6.29 -99.99 -999 -999 -999 -99.9 -99.9 -999.9 -9.9 -9.999 -99.9 -99.99 -9.99
2018/06/24 11:18 EDT    6.48 -99.99 -999 -999 -999 -99.9 -99.9 -999.9 -9.9 -9.999 -99.9 -99.99 -9.99
2018/06/24 11:24 EDT    6.67 -99.99 -999 -999 -999 -99.9 -99.9 -999.9 -9.9 -9.999 -99.9 -99.99 -9.99
2018/06/24 11:30 EDT    6.85 -99.99 -999 -999 -999 -99.9 -99.9 -999.9 -9.9 -9.999 -99.9 -99.99 -9.99
2018/06/24 11:36 EDT    7.03 -99.99 -999 -999 -999 -99.9 -99.9 -999.9 -9.9 -9.999 -99.9 -99.99 -9.99
2018/06/24 11:42 EDT    7.21 -99.99 -999 -999 -999 -99.9 -99.9 -999.9 -9.9 -9.999 -99.9 -99.99 -9.99
2018/06/24 11:48 EDT    7.38 -99.99 -999 -999 -999 -99.9 -99.9 -999.9 -9.9 -9.999 -99.9 -99.99 -9.99
2018/06/24 11:54 EDT    7.54 -99.99 -999 -999 -999 -99.9 -99.9 -999.9 -9.9 -9.999 -99.9 -99.99 -9.99
2018/06/24 12:00 EDT    7.69 -99.99 -999 -999 -999 -99.9 -99.9 -999.9 -9.9 -9.999 -99.9 -99.99 -9.99
2018/06/24 12:06 EDT    7.83 -99.99 -999 -999 -999 -99.9 -99.9 -999.9 -9.9 -9.999 -99.9 -99.99 -9.99
2018/06/24 12:12 EDT    7.96 -99.99 -999 -999 -999 -99.9 -99.9 -999.9 -9.9 -9.999 -99.9 -99.99 -9.99
2018/06/24 12:18 EDT    8.08 -99.99 -999 -999 -999 -99.9 -99.9 -999.9 -9.9 -9.999 -99.9 -99.99 -9.99
2018/06/24 12:24 EDT    8.18 -99.99 -999 -999 -999 -99.9 -99.9 -999.9 -9.9 -9.999 -99.9 -99.99 -9.99
2018/06/24 12:30 EDT    8.26 -99.99 -999 -999 -999 -99.9 -99.9 -999.9 -9.9 -9.999 -99.9 -99.99 -9.99
2018/06/24 12:36 EDT    8.33 -99.99 -999 -999 -999 -99.9 -99.9 -999.9 -9.9 -9.999 -99.9 -99.99 -9.99
2018/06/24 12:42 EDT    8.38 -99.99 -999 -999 -999 -99.9 -99.9 -999.9 -9.9 -9.999 -99.9 -99.99 -9.99
2018/06/24 12:48 EDT    8.42 -99.99 -999 -999 -999 -99.9 -99.9 -999.9 -9.9 -9.999 -99.9 -99.99 -9.99

Revised: 10/15/2013
NOAA / National Ocean Service
Web site owner: Center for Operational Oceanographic Products and Services